Mambore, Brazil
Current Conditions -  °F | °C
As of 7:00 PM on Monday 24 Nov 2014 (Local Time) from SBMG Reporting Station
Rain Showers Rain Showers  
Wind Chill: 79°   Ceiling: 6000
Heat Index: 82°   Visibility: 6mi
Dew Point: 72°   Wind: 3mph
Humidity: 78%   Direction: 350°N
Pressure: 29.85"   Gusts: NA
Location:  24.32°S, 52.53°W
Report Text: SBMG 242100Z 35003KT 9999 VCSH FEW050TCU BKN060 BKN080 26/22 Q1011
Loading
Personal Weather Stations






























Interactive Weather Map New forecast layout! Learn more

10-Day Weather Forecast

Advertisements
Track Severe Weather on mobile